createdAt,value
2018-08-23T00:00:44.304Z,4.60
2018-08-23T00:01:47.360Z,4.30
2018-08-23T00:02:51.211Z,5.05
2018-08-23T00:03:56.687Z,4.95
2018-08-23T00:05:01.333Z,5.08
2018-08-23T00:06:05.108Z,4.17
2018-08-23T00:07:08.219Z,4.83
2018-08-23T00:08:11.592Z,4.47
2018-08-23T00:09:14.627Z,4.70
2018-08-23T00:10:17.628Z,5.08
2018-08-23T00:11:27.712Z,5.08
2018-08-23T00:12:43.519Z,4.40
2018-08-23T00:13:46.778Z,4.37
2018-08-23T00:14:50.708Z,4.50
2018-08-23T00:15:53.704Z,4.80
2018-08-23T00:16:56.759Z,5.35
2018-08-23T00:18:00.693Z,4.67
2018-08-23T00:19:05.191Z,4.80
2018-08-23T00:20:09.027Z,4.92
2018-08-23T00:21:17.685Z,5.50
2018-08-23T00:22:26.907Z,5.08
2018-08-23T00:23:30.192Z,5.60
2018-08-23T00:24:33.521Z,4.50
2018-08-23T00:25:37.308Z,5.05
2018-08-23T00:26:47.608Z,4.92
2018-08-23T00:27:51.527Z,4.90
2018-08-23T00:28:55.643Z,4.90
2018-08-23T00:29:59.035Z,5.00
2018-08-23T00:31:02.121Z,4.40
2018-08-23T00:32:08.120Z,4.80
2018-08-23T00:33:11.187Z,5.40
2018-08-23T00:34:14.742Z,4.90
2018-08-23T00:35:19.563Z,4.60
2018-08-23T00:36:22.627Z,5.15
2018-08-23T00:37:25.762Z,5.03
2018-08-23T00:38:28.816Z,5.25
2018-08-23T00:39:31.894Z,5.35
2018-08-23T00:40:40.372Z,4.85
2018-08-23T00:41:49.772Z,5.20
2018-08-23T00:42:58.702Z,5.00
2018-08-23T00:44:01.769Z,4.92
2018-08-23T00:45:13.097Z,4.70
2018-08-23T00:46:20.335Z,4.87
2018-08-23T00:47:28.809Z,5.10
2018-08-23T00:48:31.838Z,4.75
2018-08-23T00:49:34.908Z,4.97
2018-08-23T00:50:54.083Z,4.62
2018-08-23T00:51:57.257Z,4.85
2018-08-23T00:53:00.320Z,4.90
2018-08-23T00:54:04.458Z,5.10
2018-08-23T00:55:25.899Z,4.92
2018-08-23T00:56:29.070Z,4.87
2018-08-23T00:57:32.136Z,4.90
2018-08-23T00:58:35.192Z,4.70
2018-08-23T00:59:38.757Z,5.05
2018-08-23T01:00:48.047Z,5.83
2018-08-23T01:02:05.960Z,5.08
2018-08-23T01:03:09.859Z,5.00
2018-08-23T01:04:14.488Z,4.85
2018-08-23T01:05:22.850Z,4.97
2018-08-23T01:06:42.430Z,4.65
2018-08-23T01:07:46.500Z,5.05
2018-08-23T01:08:50.080Z,5.05
2018-08-23T01:09:53.128Z,5.10
2018-08-23T01:10:58.420Z,5.05
2018-08-23T01:12:02.111Z,5.20
2018-08-23T01:13:05.196Z,5.08
2018-08-23T01:14:09.440Z,4.47
2018-08-23T01:15:13.468Z,4.90
2018-08-23T01:16:17.192Z,4.83
2018-08-23T01:17:21.192Z,4.80
2018-08-23T01:18:24.278Z,4.53
2018-08-23T01:19:32.687Z,4.90
2018-08-23T01:20:35.795Z,4.97
2018-08-23T01:21:45.253Z,5.00
2018-08-23T01:22:59.317Z,5.40
2018-08-23T01:24:03.288Z,4.95
2018-08-23T01:25:06.380Z,5.20
2018-08-23T01:26:09.917Z,4.78
2018-08-23T01:27:19.678Z,5.00
2018-08-23T01:28:24.149Z,5.33
2018-08-23T01:29:29.050Z,5.12
2018-08-23T01:30:32.113Z,5.45
2018-08-23T01:31:35.225Z,4.67
2018-08-23T01:32:39.112Z,4.97
2018-08-23T01:33:42.849Z,5.33
2018-08-23T01:34:45.867Z,4.75
2018-08-23T01:35:49.964Z,4.67
2018-08-23T01:36:53.357Z,4.53
2018-08-23T01:37:57.743Z,4.72
2018-08-23T01:39:05.652Z,4.67
2018-08-23T01:40:11.064Z,4.90
2018-08-23T01:41:14.108Z,4.97
2018-08-23T01:42:18.556Z,4.58
2018-08-23T01:43:23.997Z,5.08
2018-08-23T01:44:31.320Z,5.08
2018-08-23T01:45:35.688Z,4.65
2018-08-23T01:46:44.604Z,5.03
2018-08-23T01:47:58.982Z,4.87
2018-08-23T01:49:05.152Z,5.47
2018-08-23T01:50:08.252Z,4.65
2018-08-23T01:51:12.933Z,4.95
2018-08-23T01:52:15.999Z,4.47
2018-08-23T01:53:19.469Z,5.12
2018-08-23T01:54:22.507Z,5.03
2018-08-23T01:55:26.206Z,5.25
2018-08-23T01:56:29.374Z,4.97
2018-08-23T01:57:35.276Z,5.30
2018-08-23T01:58:38.848Z,4.40
2018-08-23T01:59:41.929Z,4.95
2018-08-23T02:00:45.336Z,5.03
2018-08-23T02:01:49.108Z,5.25
2018-08-23T02:02:52.240Z,4.87
2018-08-23T02:03:56.072Z,4.65
2018-08-23T02:04:59.579Z,4.90
2018-08-23T02:06:02.575Z,4.65
2018-08-23T02:07:05.669Z,4.85
2018-08-23T02:08:09.933Z,4.87
2018-08-23T02:09:13.948Z,4.70
2018-08-23T02:10:17.040Z,5.08
2018-08-23T02:11:20.088Z,5.12
2018-08-23T02:12:24.004Z,4.85
2018-08-23T02:13:28.599Z,4.85
2018-08-23T02:14:36.024Z,5.25
2018-08-23T02:15:44.696Z,4.90
2018-08-23T02:16:51.982Z,4.72
2018-08-23T02:17:56.248Z,4.62
2018-08-23T02:18:59.908Z,5.00
2018-08-23T02:20:03.691Z,4.97
2018-08-23T02:21:09.900Z,4.92
2018-08-23T02:22:13.321Z,5.35
2018-08-23T02:23:16.823Z,4.75
2018-08-23T02:24:24.217Z,4.83
2018-08-23T02:25:27.304Z,4.80
2018-08-23T02:26:32.120Z,4.67
2018-08-23T02:27:40.148Z,4.37
2018-08-23T02:28:44.748Z,4.80
2018-08-23T02:29:48.745Z,4.90
2018-08-23T02:30:56.897Z,5.20
2018-08-23T02:32:00.419Z,4.72
2018-08-23T02:33:03.961Z,4.67
2018-08-23T02:34:07.312Z,5.20
2018-08-23T02:35:10.272Z,4.97
2018-08-23T02:36:17.407Z,5.20
2018-08-23T02:37:20.812Z,5.08
2018-08-23T02:38:24.908Z,4.90
2018-08-23T02:39:28.078Z,4.42
2018-08-23T02:40:31.172Z,5.15
2018-08-23T02:41:34.894Z,4.92
2018-08-23T02:42:38.437Z,5.37
2018-08-23T02:43:41.539Z,5.22
2018-08-23T02:44:46.501Z,5.17
2018-08-23T02:45:52.468Z,5.35
2018-08-23T02:46:56.588Z,4.62
2018-08-23T02:48:00.884Z,5.00
2018-08-23T02:49:04.242Z,4.72
2018-08-23T02:50:07.299Z,4.40
2018-08-23T02:51:10.798Z,5.00
2018-08-23T02:52:14.741Z,4.83
2018-08-23T02:53:30.770Z,4.53
2018-08-23T02:54:34.352Z,4.75
2018-08-23T02:55:41.829Z,4.90
2018-08-23T02:56:50.441Z,5.00
2018-08-23T02:57:59.828Z,5.05
2018-08-23T02:59:06.183Z,5.42
2018-08-23T03:00:09.390Z,4.85
2018-08-23T03:01:12.453Z,5.08
2018-08-23T03:02:15.510Z,4.80
2018-08-23T03:03:18.758Z,5.50
2018-08-23T03:04:23.954Z,5.10
2018-08-23T03:05:27.104Z,4.90
2018-08-23T03:06:35.308Z,5.20
2018-08-23T03:07:38.329Z,4.75
2018-08-23T03:08:43.736Z,4.65
2018-08-23T03:09:47.559Z,5.25
2018-08-23T03:10:51.237Z,4.95
2018-08-23T03:11:55.601Z,5.10
2018-08-23T03:12:59.400Z,5.15
2018-08-23T03:14:02.949Z,5.20
2018-08-23T03:15:06.524Z,4.70
2018-08-23T03:16:09.703Z,5.28
2018-08-23T03:17:15.364Z,4.85
2018-08-23T03:18:18.396Z,4.53
2018-08-23T03:19:21.695Z,4.92
2018-08-23T03:20:24.708Z,4.67
2018-08-23T03:21:28.392Z,4.95
2018-08-23T03:22:32.590Z,5.50
2018-08-23T03:23:35.659Z,5.00
2018-08-23T03:24:38.799Z,5.45
2018-08-23T03:25:42.289Z,4.85
2018-08-23T03:26:46.525Z,5.28
2018-08-23T03:27:49.916Z,4.97
2018-08-23T03:28:53.016Z,5.08
2018-08-23T03:29:56.154Z,4.83
2018-08-23T03:31:01.396Z,5.10
2018-08-23T03:32:04.916Z,5.03
2018-08-23T03:33:08.013Z,5.12
2018-08-23T03:34:11.263Z,5.37
2018-08-23T03:35:14.592Z,4.97
2018-08-23T03:36:17.673Z,5.47
2018-08-23T03:37:21.225Z,4.92
2018-08-23T03:38:24.336Z,5.00
2018-08-23T03:39:27.600Z,5.67
2018-08-23T03:40:30.635Z,5.42
2018-08-23T03:41:33.772Z,5.47
2018-08-23T03:42:36.781Z,4.90
2018-08-23T03:43:39.843Z,5.25
2018-08-23T03:44:42.860Z,5.10
2018-08-23T03:45:45.876Z,5.20
2018-08-23T03:46:52.563Z,5.12
2018-08-23T03:47:56.049Z,4.90
2018-08-23T03:49:03.527Z,4.92
2018-08-23T03:50:07.804Z,4.90
2018-08-23T03:51:10.860Z,5.40
2018-08-23T03:52:16.375Z,5.00
2018-08-23T03:53:19.491Z,5.10
2018-08-23T03:54:22.504Z,4.92
2018-08-23T03:55:26.688Z,5.00
2018-08-23T03:56:29.692Z,5.25
2018-08-23T03:57:38.123Z,5.05
2018-08-23T03:58:41.704Z,5.47
2018-08-23T03:59:50.065Z,5.12
2018-08-23T04:01:05.980Z,4.80
2018-08-23T04:02:09.000Z,5.20
2018-08-23T04:03:14.803Z,5.08
2018-08-23T04:04:18.039Z,5.30
2018-08-23T04:05:21.031Z,4.90
2018-08-23T04:06:31.396Z,5.33
2018-08-23T04:07:34.897Z,5.12
2018-08-23T04:08:38.567Z,5.30
2018-08-23T04:09:42.053Z,5.08
2018-08-23T04:10:45.077Z,5.40
2018-08-23T04:11:48.052Z,5.08
2018-08-23T04:12:51.074Z,4.90
2018-08-23T04:13:54.091Z,4.95
2018-08-23T04:15:11.541Z,4.83
2018-08-23T04:16:15.025Z,5.28
2018-08-23T04:17:18.054Z,5.05
2018-08-23T04:18:21.051Z,5.08
2018-08-23T04:19:25.955Z,5.30
2018-08-23T04:20:28.984Z,4.70
2018-08-23T04:21:32.024Z,5.20
2018-08-23T04:22:35.084Z,5.22
2018-08-23T04:23:38.388Z,5.62
2018-08-23T04:24:46.944Z,4.83
2018-08-23T04:25:50.101Z,5.28
2018-08-23T04:26:53.091Z,5.47
2018-08-23T04:27:56.091Z,5.45
2018-08-23T04:28:59.172Z,5.12
2018-08-23T04:30:02.197Z,5.60
2018-08-23T04:31:05.256Z,5.03
2018-08-23T04:32:08.252Z,5.28
2018-08-23T04:33:11.464Z,5.47
2018-08-23T04:34:14.480Z,5.08
2018-08-23T04:35:27.216Z,5.08
2018-08-23T04:36:31.616Z,4.95
2018-08-23T04:37:34.669Z,5.22
2018-08-23T04:38:45.574Z,5.53
2018-08-23T04:39:54.016Z,5.40
2018-08-23T04:41:01.657Z,4.83
2018-08-23T04:42:04.837Z,5.20
2018-08-23T04:43:07.934Z,5.45
2018-08-23T04:44:12.960Z,4.90
2018-08-23T04:45:19.013Z,5.30
2018-08-23T04:46:22.659Z,5.40
2018-08-23T04:47:25.892Z,5.33
2018-08-23T04:48:29.552Z,5.05
2018-08-23T04:49:32.609Z,5.00
2018-08-23T04:50:36.108Z,4.95
2018-08-23T04:51:39.180Z,5.40
2018-08-23T04:52:42.359Z,5.12
2018-08-23T04:53:45.377Z,5.37
2018-08-23T04:54:48.636Z,5.17
2018-08-23T04:55:51.677Z,5.75
2018-08-23T04:56:54.708Z,5.67
2018-08-23T04:57:58.688Z,5.28
2018-08-23T04:59:02.599Z,5.40
2018-08-23T05:00:05.915Z,5.17
2018-08-23T05:01:08.947Z,5.03
2018-08-23T05:02:11.964Z,5.33
2018-08-23T05:03:15.061Z,5.25
2018-08-23T05:04:18.088Z,5.47
2018-08-23T05:05:21.122Z,5.47
2018-08-23T05:06:24.900Z,5.28
2018-08-23T05:07:28.357Z,5.20
2018-08-23T05:08:31.711Z,5.70
2018-08-23T05:09:34.837Z,5.37
2018-08-23T05:10:37.841Z,5.03
2018-08-23T05:11:41.223Z,5.78
2018-08-23T05:12:45.903Z,5.85
2018-08-23T05:13:48.951Z,5.25
2018-08-23T05:14:51.983Z,5.53
2018-08-23T05:15:55.050Z,5.47
2018-08-23T05:16:58.260Z,5.33
2018-08-23T05:18:01.390Z,5.55
2018-08-23T05:19:04.826Z,5.25
2018-08-23T05:20:08.127Z,5.03
2018-08-23T05:21:11.164Z,5.90
2018-08-23T05:22:14.241Z,5.55
2018-08-23T05:23:18.644Z,6.00
2018-08-23T05:24:23.364Z,5.33
2018-08-23T05:25:26.888Z,5.22
2018-08-23T05:26:30.560Z,5.40
2018-08-23T05:27:43.652Z,5.67
2018-08-23T05:28:59.399Z,5.15
2018-08-23T05:30:02.788Z,5.65
2018-08-23T05:31:06.178Z,5.53
2018-08-23T05:32:09.280Z,6.10
2018-08-23T05:33:13.672Z,5.40
2018-08-23T05:34:16.950Z,5.33
2018-08-23T05:35:19.999Z,5.92
2018-08-23T05:36:23.024Z,5.95
2018-08-23T05:37:26.183Z,6.33
2018-08-23T05:38:29.243Z,5.67
2018-08-23T05:40:04.208Z,6.22
2018-08-23T05:41:12.564Z,6.20
2018-08-23T05:42:17.241Z,6.80
2018-08-23T05:43:22.299Z,6.80
2018-08-23T05:44:25.802Z,7.05
2018-08-23T05:45:35.161Z,7.12
2018-08-23T05:46:39.202Z,6.92
2018-08-23T05:47:42.345Z,7.35
2018-08-23T05:48:45.311Z,6.75
2018-08-23T05:49:48.335Z,7.10
2018-08-23T05:50:51.997Z,8.35
2018-08-23T05:51:58.204Z,7.58
2018-08-23T05:53:01.261Z,8.18
2018-08-23T05:54:05.028Z,8.25
2018-08-23T05:55:08.768Z,8.63
2018-08-23T05:56:12.509Z,7.10
2018-08-23T05:57:16.400Z,7.62
2018-08-23T05:58:23.155Z,7.47
2018-08-23T05:59:26.180Z,6.33
2018-08-23T06:00:29.975Z,7.20
2018-08-23T06:01:32.979Z,7.12
2018-08-23T06:02:36.706Z,7.40
2018-08-23T06:03:39.715Z,7.58
2018-08-23T06:04:43.997Z,6.90
2018-08-23T06:05:48.281Z,6.90
2018-08-23T06:06:51.405Z,7.12
2018-08-23T06:07:54.636Z,6.75
2018-08-23T06:09:02.669Z,7.15
2018-08-23T06:10:05.690Z,6.45
2018-08-23T06:11:09.851Z,6.92
2018-08-23T06:12:13.226Z,7.37
2018-08-23T06:13:16.703Z,7.42
2018-08-23T06:14:19.802Z,6.67
2018-08-23T06:15:22.825Z,6.53
2018-08-23T06:16:25.872Z,6.90
2018-08-23T06:17:28.895Z,6.95
2018-08-23T06:18:31.904Z,6.78
2018-08-23T06:19:35.083Z,7.03
2018-08-23T06:20:38.103Z,7.75
2018-08-23T06:21:41.136Z,7.30
2018-08-23T06:22:44.131Z,7.10
2018-08-23T06:23:54.923Z,6.97
2018-08-23T06:24:57.980Z,7.05
2018-08-23T06:26:01.004Z,7.03
2018-08-23T06:27:04.035Z,7.42
2018-08-23T06:28:17.237Z,6.50
2018-08-23T06:29:23.845Z,6.72
2018-08-23T06:30:26.864Z,7.08
2018-08-23T06:31:30.560Z,6.87
2018-08-23T06:32:33.601Z,6.72
2018-08-23T06:33:42.206Z,7.12
2018-08-23T06:34:51.385Z,7.10
2018-08-23T06:35:55.141Z,7.58
2018-08-23T06:36:58.172Z,7.33
2018-08-23T06:38:01.192Z,7.20
2018-08-23T06:39:05.932Z,7.97
2018-08-23T06:40:08.933Z,7.78
2018-08-23T06:41:11.979Z,7.60
2018-08-23T06:42:14.979Z,7.87
2018-08-23T06:43:17.993Z,7.60
2018-08-23T06:44:21.557Z,7.22
2018-08-23T06:45:25.401Z,7.50
2018-08-23T06:46:29.348Z,7.17
2018-08-23T06:47:32.373Z,7.30
2018-08-23T06:48:35.388Z,7.80
2018-08-23T06:49:38.484Z,7.50
2018-08-23T06:50:45.802Z,7.45
2018-08-23T06:51:59.073Z,7.10
2018-08-23T06:53:02.152Z,7.30
2018-08-23T06:54:05.200Z,7.05
2018-08-23T06:55:13.217Z,7.12
2018-08-23T06:56:17.927Z,7.10
2018-08-23T06:57:20.916Z,7.67
2018-08-23T06:58:23.944Z,7.67
2018-08-23T06:59:27.777Z,8.03
2018-08-23T07:00:33.628Z,7.28
2018-08-23T07:01:48.000Z,8.08
2018-08-23T07:02:54.662Z,6.97
2018-08-23T07:04:01.956Z,7.20
2018-08-23T07:05:13.752Z,7.05
2018-08-23T07:06:16.775Z,6.90
2018-08-23T07:07:20.068Z,7.67
2018-08-23T07:08:23.085Z,7.10
2018-08-23T07:09:26.109Z,7.15
2018-08-23T07:10:29.132Z,7.42
2018-08-23T07:11:32.173Z,6.75
2018-08-23T07:12:35.901Z,7.25
2018-08-23T07:13:38.975Z,7.35
2018-08-23T07:14:41.967Z,7.30
2018-08-23T07:15:49.333Z,6.92
2018-08-23T07:16:52.352Z,6.95
2018-08-23T07:17:55.351Z,6.97
2018-08-23T07:18:58.359Z,7.03
2018-08-23T07:20:04.371Z,7.10
2018-08-23T07:21:07.396Z,6.60
2018-08-23T07:22:10.481Z,7.40
2018-08-23T07:23:25.258Z,7.50
2018-08-23T07:24:40.044Z,6.87
2018-08-23T07:25:45.058Z,7.25
2018-08-23T07:26:48.232Z,7.08
2018-08-23T07:27:51.248Z,6.80
2018-08-23T07:28:54.297Z,6.90
2018-08-23T07:29:58.417Z,7.15
2018-08-23T07:31:01.336Z,6.42
2018-08-23T07:32:06.289Z,7.45
2018-08-23T07:33:09.319Z,6.95
2018-08-23T07:34:12.309Z,7.05
2018-08-23T07:35:17.732Z,7.08
2018-08-23T07:36:27.720Z,6.70
2018-08-23T07:37:31.950Z,6.42
2018-08-23T07:38:34.972Z,6.72
2018-08-23T07:39:38.056Z,6.85
2018-08-23T07:40:41.135Z,6.58
2018-08-23T07:41:44.111Z,6.47
2018-08-23T07:42:48.462Z,7.05
2018-08-23T07:43:51.571Z,6.85
2018-08-23T07:44:54.960Z,6.92
2018-08-23T07:45:57.971Z,6.53
2018-08-23T07:47:01.251Z,6.58
2018-08-23T07:48:04.380Z,6.53
2018-08-23T07:49:07.400Z,6.65
2018-08-23T07:50:10.577Z,6.80
2018-08-23T07:51:19.162Z,6.45
2018-08-23T07:52:22.155Z,6.50
2018-08-23T07:53:25.215Z,6.60
2018-08-23T07:54:28.296Z,6.33
2018-08-23T07:55:31.332Z,6.35
2018-08-23T07:56:34.373Z,7.03
2018-08-23T07:57:37.938Z,6.67
2018-08-23T07:58:40.955Z,6.62
2018-08-23T07:59:43.988Z,5.65
2018-08-23T08:00:47.060Z,5.87
2018-08-23T08:01:50.058Z,6.40
2018-08-23T08:02:53.348Z,6.62
2018-08-23T08:03:57.102Z,6.28
2018-08-23T08:05:00.140Z,5.60
2018-08-23T08:06:03.168Z,5.67
2018-08-23T08:07:08.100Z,6.25
2018-08-23T08:08:12.106Z,6.25
2018-08-23T08:09:23.651Z,6.22
2018-08-23T08:10:31.515Z,5.75
2018-08-23T08:11:45.829Z,6.35
2018-08-23T08:12:50.942Z,6.20
2018-08-23T08:13:59.340Z,5.87
2018-08-23T08:15:02.753Z,6.22
2018-08-23T08:16:14.670Z,6.15
2018-08-23T08:17:23.357Z,6.20
2018-08-23T08:18:26.531Z,5.90
2018-08-23T08:19:36.353Z,6.42
2018-08-23T08:20:44.926Z,5.95
2018-08-23T08:21:48.169Z,6.08
2018-08-23T08:22:51.419Z,5.90
2018-08-23T08:23:58.652Z,6.10
2018-08-23T08:25:04.761Z,5.83
2018-08-23T08:26:07.777Z,5.72
2018-08-23T08:27:11.013Z,6.58
2018-08-23T08:28:14.344Z,5.78
2018-08-23T08:29:23.484Z,5.80
2018-08-23T08:30:39.235Z,5.47
2018-08-23T08:31:42.656Z,5.90
2018-08-23T08:32:45.776Z,5.90
2018-08-23T08:33:48.792Z,5.87
2018-08-23T08:34:51.764Z,6.70
2018-08-23T08:35:59.548Z,6.20
2018-08-23T08:37:02.544Z,5.78
2018-08-23T08:38:05.577Z,5.85
2018-08-23T08:39:09.363Z,6.58
2018-08-23T08:40:13.945Z,6.50
2018-08-23T08:41:16.948Z,6.28
2018-08-23T08:42:27.331Z,5.75
2018-08-23T08:43:30.383Z,5.62
2018-08-23T08:44:33.412Z,5.67
2018-08-23T08:45:36.431Z,5.90
2018-08-23T08:46:39.457Z,5.87
2018-08-23T08:47:43.777Z,5.97
2018-08-23T08:48:47.181Z,5.72
2018-08-23T08:49:50.245Z,5.80
2018-08-23T08:51:10.120Z,5.70
2018-08-23T08:52:13.190Z,5.65
2018-08-23T08:53:16.209Z,5.80
2018-08-23T08:54:19.260Z,6.10
2018-08-23T08:55:22.268Z,5.83
2018-08-23T08:56:28.529Z,5.40
2018-08-23T08:57:31.988Z,5.60
2018-08-23T08:58:34.996Z,5.10
2018-08-23T08:59:37.999Z,5.05
2018-08-23T09:00:49.644Z,5.95
2018-08-23T09:01:53.127Z,5.60
2018-08-23T09:02:56.148Z,6.12
2018-08-23T09:03:59.172Z,5.28
2018-08-23T09:05:02.161Z,5.33
2018-08-23T09:06:07.157Z,5.28
2018-08-23T09:07:10.146Z,5.53
2018-08-23T09:08:13.127Z,5.30
2018-08-23T09:09:23.616Z,5.80
2018-08-23T09:10:26.641Z,5.60
2018-08-23T09:11:29.647Z,5.10
2018-08-23T09:12:33.303Z,5.45
2018-08-23T09:13:41.702Z,5.97
2018-08-23T09:14:44.721Z,6.05
2018-08-23T09:15:48.380Z,5.75
2018-08-23T09:16:51.442Z,5.37
2018-08-23T09:17:54.485Z,5.40
2018-08-23T09:18:59.840Z,5.08
2018-08-23T09:20:04.752Z,5.53
2018-08-23T09:21:07.756Z,5.45
2018-08-23T09:22:16.116Z,5.17
2018-08-23T09:23:19.203Z,5.40
2018-08-23T09:24:26.013Z,5.20
2018-08-23T09:25:34.316Z,5.40
2018-08-23T09:26:38.861Z,5.25
2018-08-23T09:27:41.859Z,5.72
2018-08-23T09:28:44.842Z,4.80
2018-08-23T09:29:47.930Z,5.60
2018-08-23T09:30:50.909Z,4.80
2018-08-23T09:31:53.968Z,5.22
2018-08-23T09:32:57.465Z,4.90
2018-08-23T09:34:00.509Z,5.17
2018-08-23T09:35:04.406Z,5.12
2018-08-23T09:36:07.391Z,5.70
2018-08-23T09:37:10.718Z,5.10
2018-08-23T09:38:14.837Z,4.70
2018-08-23T09:39:17.835Z,5.00
2018-08-23T09:40:22.104Z,5.03
2018-08-23T09:41:25.235Z,5.12
2018-08-23T09:42:34.016Z,5.00
2018-08-23T09:43:37.044Z,5.17
2018-08-23T09:44:53.015Z,5.05
2018-08-23T09:45:56.109Z,4.87
2018-08-23T09:47:05.283Z,4.83
2018-08-23T09:48:08.743Z,5.28
2018-08-23T09:49:11.923Z,5.12
2018-08-23T09:50:14.940Z,5.25
2018-08-23T09:51:30.412Z,4.47
2018-08-23T09:52:42.444Z,4.70
2018-08-23T09:53:45.750Z,5.17
2018-08-23T09:54:48.822Z,4.75
2018-08-23T09:55:52.673Z,4.80
2018-08-23T09:56:55.836Z,5.10
2018-08-23T09:57:59.353Z,5.47
2018-08-23T09:59:02.350Z,5.33
2018-08-23T10:00:06.810Z,4.95
2018-08-23T10:01:15.309Z,5.05
2018-08-23T10:02:23.808Z,5.30
2018-08-23T10:03:33.140Z,4.75
2018-08-23T10:04:41.639Z,5.10
2018-08-23T10:05:50.084Z,5.15
2018-08-23T10:07:01.086Z,5.12
2018-08-23T10:08:09.615Z,5.60
2018-08-23T10:09:18.120Z,5.22
2018-08-23T10:10:26.506Z,4.92
2018-08-23T10:11:35.121Z,5.12
2018-08-23T10:12:43.459Z,5.25
2018-08-23T10:13:51.856Z,5.40
2018-08-23T10:15:00.407Z,4.95
2018-08-23T10:16:08.951Z,5.17
2018-08-23T10:17:17.534Z,5.17
2018-08-23T10:18:26.285Z,5.50
2018-08-23T10:19:34.844Z,5.12
2018-08-23T10:20:43.614Z,4.80
2018-08-23T10:21:52.157Z,4.97
2018-08-23T10:23:00.517Z,4.92
2018-08-23T10:24:14.642Z,4.67
2018-08-23T10:25:32.405Z,4.80
2018-08-23T10:26:35.593Z,4.95
2018-08-23T10:27:38.606Z,5.10
2018-08-23T10:28:46.975Z,6.10
2018-08-23T10:29:50.007Z,5.60
2018-08-23T10:30:53.305Z,5.78
2018-08-23T10:31:56.413Z,5.33
2018-08-23T10:32:59.440Z,5.87
2018-08-23T10:34:02.460Z,5.40
2018-08-23T10:35:05.497Z,5.30
2018-08-23T10:36:08.512Z,5.45
2018-08-23T10:37:11.551Z,5.45
2018-08-23T10:38:16.095Z,5.58
2018-08-23T10:39:19.179Z,5.25
2018-08-23T10:40:22.214Z,5.47
2018-08-23T10:41:25.268Z,5.03
2018-08-23T10:42:28.256Z,5.15
2018-08-23T10:43:36.691Z,5.10
2018-08-23T10:44:39.795Z,4.80
2018-08-23T10:45:43.031Z,4.83
2018-08-23T10:46:51.429Z,4.80
2018-08-23T10:47:59.912Z,4.83
2018-08-23T10:49:02.952Z,4.60
2018-08-23T10:50:05.928Z,4.53
2018-08-23T10:51:09.007Z,4.83
2018-08-23T10:52:12.012Z,5.00
2018-08-23T10:53:15.363Z,4.65
2018-08-23T10:54:18.394Z,4.95
2018-08-23T10:55:21.400Z,4.50
2018-08-23T10:56:26.684Z,4.42
2018-08-23T10:57:29.720Z,4.65
2018-08-23T10:58:32.782Z,4.53
2018-08-23T10:59:35.828Z,4.20
2018-08-23T11:00:38.864Z,4.78
2018-08-23T11:01:41.866Z,4.55
2018-08-23T11:02:44.949Z,4.50
2018-08-23T11:03:48.019Z,4.90
2018-08-23T11:04:51.069Z,4.30
2018-08-23T11:05:54.069Z,4.28
2018-08-23T11:06:58.892Z,4.28
2018-08-23T11:08:07.292Z,4.25
2018-08-23T11:09:15.694Z,4.05
2018-08-23T11:10:24.180Z,4.70
2018-08-23T11:11:32.502Z,4.65
2018-08-23T11:12:40.775Z,4.45
2018-08-23T11:13:45.913Z,4.28
2018-08-23T11:14:48.891Z,4.60
2018-08-23T11:15:56.197Z,4.33
2018-08-23T11:17:04.871Z,4.20
2018-08-23T11:18:13.202Z,4.12
2018-08-23T11:19:21.728Z,4.80
2018-08-23T11:20:25.914Z,4.62
2018-08-23T11:21:28.936Z,4.22
2018-08-23T11:22:37.727Z,4.22
2018-08-23T11:23:41.560Z,4.53
2018-08-23T11:24:44.548Z,4.60
2018-08-23T11:25:47.627Z,4.53
2018-08-23T11:26:50.703Z,4.35
2018-08-23T11:27:54.268Z,4.70
2018-08-23T11:28:57.359Z,4.50
2018-08-23T11:30:00.433Z,3.98
2018-08-23T11:31:03.422Z,4.25
2018-08-23T11:32:06.460Z,3.87
2018-08-23T11:33:09.985Z,4.45
2018-08-23T11:34:12.968Z,3.83
2018-08-23T11:35:16.022Z,3.85
2018-08-23T11:36:19.165Z,4.53
2018-08-23T11:37:22.275Z,4.08
2018-08-23T11:38:25.329Z,3.85
2018-08-23T11:39:28.336Z,4.20
2018-08-23T11:40:31.499Z,4.17
2018-08-23T11:41:34.567Z,4.35
2018-08-23T11:42:37.656Z,4.17
2018-08-23T11:43:40.723Z,4.22
2018-08-23T11:44:43.769Z,4.25
2018-08-23T11:45:46.828Z,4.67
2018-08-23T11:46:49.860Z,4.37
2018-08-23T11:47:52.924Z,4.28
2018-08-23T11:48:55.986Z,4.10
2018-08-23T11:49:58.999Z,4.55
2018-08-23T11:51:02.091Z,4.40
2018-08-23T11:52:05.116Z,4.28
2018-08-23T11:53:08.189Z,4.50
2018-08-23T11:54:11.152Z,4.20
2018-08-23T11:55:14.104Z,4.78
2018-08-23T11:56:17.115Z,4.35
2018-08-23T11:57:20.155Z,3.80
2018-08-23T11:58:23.362Z,4.20
2018-08-23T11:59:26.559Z,4.50
2018-08-23T12:00:29.734Z,4.70
2018-08-23T12:01:32.899Z,3.85
2018-08-23T12:02:36.096Z,4.00
2018-08-23T12:03:39.640Z,4.25
2018-08-23T12:04:42.735Z,3.92
2018-08-23T12:05:45.788Z,4.28
2018-08-23T12:06:52.228Z,4.00
2018-08-23T12:07:55.706Z,4.20
2018-08-23T12:08:58.738Z,3.83
2018-08-23T12:10:01.919Z,3.70
2018-08-23T12:11:04.963Z,3.92
2018-08-23T12:12:08.132Z,3.92
2018-08-23T12:13:13.876Z,3.70
2018-08-23T12:14:17.928Z,3.70
2018-08-23T12:15:27.276Z,4.08
2018-08-23T12:16:31.385Z,3.87
2018-08-23T12:17:35.860Z,4.05
2018-08-23T12:18:49.039Z,3.87
2018-08-23T12:19:53.691Z,4.10
2018-08-23T12:20:57.832Z,3.98
2018-08-23T12:22:01.436Z,3.75
2018-08-23T12:23:04.518Z,3.60
2018-08-23T12:24:07.565Z,3.67
2018-08-23T12:25:12.480Z,4.00
2018-08-23T12:26:15.647Z,3.77
2018-08-23T12:27:18.664Z,3.42
2018-08-23T12:28:27.113Z,3.80
2018-08-23T12:29:30.194Z,3.55
2018-08-23T12:30:33.213Z,3.45
2018-08-23T12:31:36.557Z,3.80
2018-08-23T12:32:39.532Z,3.98
2018-08-23T12:33:42.539Z,3.60
2018-08-23T12:34:45.665Z,3.80
2018-08-23T12:35:48.834Z,3.52
2018-08-23T12:36:57.132Z,3.50
2018-08-23T12:38:05.677Z,3.58
2018-08-23T12:39:14.884Z,3.75
2018-08-23T12:40:23.492Z,3.87
2018-08-23T12:41:32.028Z,3.25
2018-08-23T12:42:40.677Z,3.42
2018-08-23T12:43:46.847Z,3.60
2018-08-23T12:44:52.741Z,3.45
2018-08-23T12:45:59.792Z,4.03
2018-08-23T12:47:03.861Z,3.37
2018-08-23T12:48:07.248Z,3.35
2018-08-23T12:49:10.786Z,3.77
2018-08-23T12:50:13.853Z,3.60
2018-08-23T12:51:16.871Z,3.72
2018-08-23T12:52:19.977Z,3.67
2018-08-23T12:53:23.188Z,3.80
2018-08-23T12:54:26.164Z,3.85
2018-08-23T12:55:29.196Z,3.90
2018-08-23T12:56:32.244Z,4.03
2018-08-23T12:57:35.247Z,3.30
2018-08-23T12:58:38.408Z,3.87
2018-08-23T12:59:41.450Z,4.00
2018-08-23T13:00:45.507Z,3.62
2018-08-23T13:01:48.640Z,3.87
2018-08-23T13:02:51.694Z,3.72
2018-08-23T13:03:54.862Z,3.50
2018-08-23T13:04:57.875Z,3.50
2018-08-23T13:06:00.920Z,3.95
2018-08-23T13:07:03.988Z,3.62
2018-08-23T13:08:07.981Z,3.70
2018-08-23T13:09:11.159Z,3.72
2018-08-23T13:10:14.187Z,3.37
2018-08-23T13:11:17.254Z,3.70
2018-08-23T13:12:20.315Z,3.40
2018-08-23T13:13:23.367Z,3.55
2018-08-23T13:14:26.452Z,3.45
2018-08-23T13:15:29.532Z,3.40
2018-08-23T13:16:32.583Z,3.58
2018-08-23T13:17:35.762Z,3.45
2018-08-23T13:18:39.284Z,3.67
2018-08-23T13:19:42.452Z,3.70
2018-08-23T13:20:45.432Z,3.70
2018-08-23T13:21:52.748Z,4.12
2018-08-23T13:22:55.795Z,3.87
2018-08-23T13:24:00.083Z,3.52
2018-08-23T13:25:05.603Z,3.60
2018-08-23T13:26:08.700Z,3.92
2018-08-23T13:27:11.752Z,4.28
2018-08-23T13:28:14.808Z,3.50
2018-08-23T13:29:17.987Z,3.37
2018-08-23T13:30:21.041Z,3.62
2018-08-23T13:31:24.032Z,3.57
2018-08-23T13:32:27.184Z,3.62
2018-08-23T13:33:30.168Z,4.53
2018-08-23T13:34:33.232Z,4.10
2018-08-23T13:35:36.346Z,4.05
2018-08-23T13:36:39.399Z,3.62
2018-08-23T13:37:42.394Z,3.87
2018-08-23T13:38:45.478Z,3.70
2018-08-23T13:39:48.564Z,3.60
2018-08-23T13:40:51.587Z,4.10
2018-08-23T13:41:54.568Z,4.00
2018-08-23T13:42:57.677Z,4.00
2018-08-23T13:44:00.763Z,3.92
2018-08-23T13:45:03.893Z,3.60
2018-08-23T13:46:06.912Z,3.58
2018-08-23T13:47:09.924Z,4.00
2018-08-23T13:48:13.107Z,4.40
2018-08-23T13:49:16.124Z,3.75
2018-08-23T13:50:19.327Z,4.30
2018-08-23T13:51:22.877Z,4.70
2018-08-23T13:52:26.026Z,3.75
2018-08-23T13:53:29.087Z,3.87
2018-08-23T13:54:32.166Z,3.92
2018-08-23T13:55:35.241Z,3.70
2018-08-23T13:56:38.273Z,3.77
2018-08-23T13:57:41.317Z,3.87
2018-08-23T13:58:45.272Z,4.15
2018-08-23T13:59:48.342Z,3.70
2018-08-23T14:00:51.437Z,4.00
2018-08-23T14:01:54.603Z,4.00
2018-08-23T14:02:58.224Z,3.60
2018-08-23T14:04:01.368Z,3.72
2018-08-23T14:05:04.396Z,3.50
2018-08-23T14:06:07.562Z,3.33
2018-08-23T14:07:10.544Z,3.70
2018-08-23T14:08:13.612Z,3.87
2018-08-23T14:09:16.685Z,3.50
2018-08-23T14:10:19.748Z,3.53
2018-08-23T14:11:22.817Z,3.83
2018-08-23T14:12:25.889Z,4.00
2018-08-23T14:13:28.917Z,3.77
2018-08-23T14:14:31.952Z,3.93
2018-08-23T14:15:40.408Z,3.90
2018-08-23T14:16:43.540Z,3.87
2018-08-23T14:17:46.636Z,3.95
2018-08-23T14:18:49.686Z,3.77
2018-08-23T14:19:52.796Z,3.87
2018-08-23T14:20:55.816Z,4.20